createdAt,value
2019-05-16T00:00:29.075Z,5.17
2019-05-16T00:02:58.864Z,2.60
2019-05-16T00:05:28.232Z,4.60
2019-05-16T00:07:58.946Z,4.47
2019-05-16T00:10:28.183Z,3.87
2019-05-16T00:12:59.692Z,5.67
2019-05-16T00:15:28.659Z,5.33
2019-05-16T00:17:58.525Z,6.42
2019-05-16T00:20:28.528Z,5.55
2019-05-16T00:22:58.844Z,3.72
2019-05-16T00:25:28.673Z,6.55
2019-05-16T00:27:58.619Z,5.55
2019-05-16T00:30:28.714Z,2.65
2019-05-16T00:32:58.697Z,4.00
2019-05-16T00:35:28.626Z,5.17
2019-05-16T00:37:59.043Z,3.87
2019-05-16T00:40:28.026Z,2.47
2019-05-16T00:42:58.970Z,4.87
2019-05-16T00:45:29.429Z,6.40
2019-05-16T00:47:58.540Z,9.50
2019-05-16T00:50:28.849Z,3.00
2019-05-16T00:52:59.066Z,4.80
2019-05-16T00:55:29.022Z,5.83
2019-05-16T00:57:58.938Z,3.70
2019-05-16T01:00:49.760Z,2.60
2019-05-16T01:03:20.210Z,4.83
2019-05-16T01:05:48.778Z,3.22
2019-05-16T01:08:18.896Z,2.50
2019-05-16T01:10:51.057Z,5.10
2019-05-16T01:13:18.682Z,4.85
2019-05-16T01:15:48.681Z,5.35
2019-05-16T01:18:18.726Z,3.27
2019-05-16T01:20:48.178Z,9.95
2019-05-16T01:23:18.242Z,6.90
2019-05-16T01:25:48.391Z,6.08
2019-05-16T01:28:18.124Z,4.75
2019-05-16T01:30:48.864Z,5.22
2019-05-16T01:33:19.276Z,6.17
2019-05-16T01:35:48.019Z,5.12
2019-05-16T01:38:18.030Z,4.53
2019-05-16T01:40:49.202Z,1.95
2019-05-16T01:43:18.007Z,5.22
2019-05-16T01:45:48.704Z,4.92
2019-05-16T01:48:19.131Z,3.45
2019-05-16T01:50:48.204Z,2.95
2019-05-16T01:53:17.878Z,3.72
2019-05-16T01:55:48.592Z,2.45
2019-05-16T01:58:19.992Z,2.52
2019-05-16T02:00:58.164Z,4.47
2019-05-16T02:03:19.109Z,5.50
2019-05-16T02:05:48.199Z,6.20
2019-05-16T02:08:18.260Z,5.92
2019-05-16T02:10:47.926Z,4.78
2019-05-16T02:13:18.026Z,6.00
2019-05-16T02:15:48.908Z,4.87
2019-05-16T02:18:18.478Z,7.35
2019-05-16T02:20:47.993Z,4.25
2019-05-16T02:23:18.774Z,2.60
2019-05-16T02:25:49.055Z,4.25
2019-05-16T02:28:19.768Z,7.17
2019-05-16T02:30:51.505Z,1.87
2019-05-16T02:33:21.407Z,4.55
2019-05-16T02:35:54.697Z,3.85
2019-05-16T02:38:21.423Z,19.57
2019-05-16T02:40:51.261Z,2.60
2019-05-16T02:43:21.844Z,5.33
2019-05-16T02:45:51.967Z,7.78
2019-05-16T02:48:21.570Z,4.87
2019-05-16T02:50:51.485Z,1.95
2019-05-16T02:53:22.283Z,7.05
2019-05-16T02:55:51.894Z,6.40
2019-05-16T02:58:23.276Z,3.80
2019-05-16T03:00:51.825Z,5.72
2019-05-16T03:03:21.280Z,2.95
2019-05-16T03:05:51.115Z,3.17
2019-05-16T03:08:21.484Z,4.80
2019-05-16T03:10:52.254Z,5.28
2019-05-16T03:13:22.673Z,3.03
2019-05-16T03:15:51.692Z,3.42
2019-05-16T03:18:23.155Z,5.83
2019-05-16T03:20:55.132Z,2.70
2019-05-16T03:23:23.846Z,3.45
2019-05-16T03:25:52.570Z,1.95
2019-05-16T03:28:22.479Z,3.72
2019-05-16T03:30:54.668Z,5.97
2019-05-16T03:33:30.836Z,7.35
2019-05-16T03:35:54.853Z,9.70
2019-05-16T03:38:22.453Z,6.10
2019-05-16T03:40:51.313Z,5.37
2019-05-16T03:43:21.748Z,3.42
2019-05-16T03:45:52.135Z,4.08
2019-05-16T03:48:21.497Z,4.80
2019-05-16T03:50:50.993Z,4.10
2019-05-16T03:53:21.245Z,3.30
2019-05-16T03:55:51.812Z,4.22
2019-05-16T03:58:22.495Z,2.15
2019-05-16T04:00:54.867Z,3.30
2019-05-16T04:03:28.072Z,7.87
2019-05-16T04:05:55.489Z,4.40
2019-05-16T04:08:25.613Z,3.65
2019-05-16T04:10:54.679Z,3.25
2019-05-16T04:13:23.391Z,10.63
2019-05-16T04:15:52.943Z,3.55
2019-05-16T04:18:22.491Z,3.30
2019-05-16T04:20:52.825Z,3.77
2019-05-16T04:23:21.891Z,5.92
2019-05-16T04:25:52.225Z,9.48
2019-05-16T04:28:22.488Z,3.27
2019-05-16T04:30:52.271Z,5.72
2019-05-16T04:33:22.433Z,5.00
2019-05-16T04:35:52.438Z,6.40
2019-05-16T04:38:34.331Z,4.55
2019-05-16T04:40:52.917Z,1.30
2019-05-16T04:43:22.395Z,3.40
2019-05-16T04:45:52.375Z,4.33
2019-05-16T04:48:22.535Z,3.50
2019-05-16T04:50:52.331Z,3.75
2019-05-16T04:53:21.835Z,3.00
2019-05-16T04:55:51.903Z,8.70
2019-05-16T04:58:23.874Z,5.03
2019-05-16T05:00:52.563Z,6.53
2019-05-16T05:03:22.402Z,7.92
2019-05-16T05:05:51.839Z,3.60
2019-05-16T05:08:22.419Z,2.42
2019-05-16T05:10:51.930Z,5.90
2019-05-16T05:13:22.695Z,15.50
2019-05-16T05:15:51.677Z,37.75
2019-05-16T05:18:21.485Z,6.15
2019-05-16T05:20:52.491Z,3.65
2019-05-16T05:23:21.433Z,2.20
2019-05-16T05:25:51.380Z,7.67
2019-05-16T05:28:21.188Z,4.35
2019-05-16T05:30:50.467Z,8.25
2019-05-16T05:33:20.921Z,6.00
2019-05-16T05:35:51.812Z,11.08
2019-05-16T05:38:21.492Z,7.85
2019-05-16T05:40:51.235Z,7.78
2019-05-16T05:43:21.645Z,4.35
2019-05-16T05:45:51.451Z,3.05
2019-05-16T05:48:21.660Z,4.95
2019-05-16T05:50:51.238Z,5.20
2019-05-16T05:53:20.766Z,5.95
2019-05-16T05:55:51.187Z,4.20
2019-05-16T05:58:21.313Z,5.58
2019-05-16T06:00:51.895Z,7.85
2019-05-16T06:03:22.309Z,5.20
2019-05-16T06:05:51.070Z,2.65
2019-05-16T06:08:20.716Z,6.85
2019-05-16T06:10:50.451Z,4.53
2019-05-16T06:13:20.676Z,10.53
2019-05-16T06:15:51.008Z,11.20
2019-05-16T06:18:20.323Z,4.28
2019-05-16T06:20:51.283Z,3.90
2019-05-16T06:23:20.575Z,4.12
2019-05-16T06:25:50.601Z,4.22
2019-05-16T06:28:20.580Z,5.75
2019-05-16T06:30:51.645Z,4.78
2019-05-16T06:33:20.679Z,4.43
2019-05-16T06:35:51.449Z,4.53
2019-05-16T06:38:21.083Z,7.42
2019-05-16T06:40:52.579Z,7.37
2019-05-16T06:43:20.770Z,4.45
2019-05-16T06:45:51.431Z,10.38
2019-05-16T06:48:21.286Z,5.55
2019-05-16T06:50:51.424Z,6.05
2019-05-16T06:53:21.057Z,3.58
2019-05-16T06:55:50.108Z,2.45
2019-05-16T06:58:21.777Z,7.08
2019-05-16T07:00:52.128Z,8.35
2019-05-16T07:03:20.633Z,11.35
2019-05-16T07:05:50.327Z,5.03
2019-05-16T07:08:20.610Z,4.67
2019-05-16T07:10:50.821Z,4.78
2019-05-16T07:13:20.197Z,12.40
2019-05-16T07:15:51.227Z,10.45
2019-05-16T07:18:20.993Z,5.53
2019-05-16T07:20:50.990Z,3.65
2019-05-16T07:23:21.064Z,12.98
2019-05-16T07:25:50.792Z,7.50
2019-05-16T07:28:20.906Z,3.05
2019-05-16T07:30:50.227Z,12.33
2019-05-16T07:33:21.043Z,6.22
2019-05-16T07:35:51.330Z,5.35
2019-05-16T07:38:20.566Z,7.25
2019-05-16T07:40:51.212Z,4.60
2019-05-16T07:43:20.442Z,7.92
2019-05-16T07:45:51.226Z,6.35
2019-05-16T07:48:21.417Z,4.20
2019-05-16T07:50:53.690Z,6.42
2019-05-16T07:53:22.412Z,8.15
2019-05-16T07:55:51.286Z,3.25
2019-05-16T07:58:21.683Z,4.95
2019-05-16T08:01:01.980Z,3.57
2019-05-16T08:03:21.278Z,9.88
2019-05-16T08:05:51.282Z,9.33
2019-05-16T08:08:23.825Z,5.35
2019-05-16T08:10:51.368Z,6.20
2019-05-16T08:13:21.036Z,3.40
2019-05-16T08:15:50.756Z,2.40
2019-05-16T08:18:21.351Z,8.30
2019-05-16T08:23:22.241Z,13.22
2019-05-16T08:25:51.257Z,3.00
2019-05-16T08:28:21.513Z,4.75
2019-05-16T08:30:52.971Z,4.80
2019-05-16T08:33:22.069Z,5.08
2019-05-16T08:35:51.753Z,4.25
2019-05-16T08:41:06.460Z,4.15
2019-05-16T08:43:23.817Z,6.58
2019-05-16T08:45:52.622Z,6.70
2019-05-16T08:48:23.158Z,4.22
2019-05-16T08:50:05.380Z,6.35
2019-05-16T08:50:54.858Z,7.85
2019-05-16T08:53:22.371Z,8.70
2019-05-16T08:55:51.261Z,3.75
2019-05-16T08:58:22.569Z,6.53
2019-05-16T09:00:55.342Z,8.80
2019-05-16T09:03:22.217Z,4.58
2019-05-16T09:05:53.523Z,9.85
2019-05-16T09:08:21.797Z,5.85
2019-05-16T09:10:31.317Z,5.60
2019-05-16T09:11:00.774Z,12.95
2019-05-16T09:13:22.093Z,9.38
2019-05-16T09:15:52.848Z,3.45
2019-05-16T09:18:21.608Z,7.78
2019-05-16T09:20:51.472Z,5.20
2019-05-16T09:23:20.230Z,8.25
2019-05-16T09:25:49.361Z,5.30
2019-05-16T09:28:18.240Z,10.25
2019-05-16T09:30:47.237Z,14.23
2019-05-16T09:33:17.674Z,7.62
2019-05-16T09:35:48.735Z,9.90
2019-05-16T09:38:23.155Z,7.75
2019-05-16T09:40:48.341Z,6.75
2019-05-16T09:43:17.983Z,8.23
2019-05-16T09:45:47.346Z,4.92
2019-05-16T09:48:18.818Z,4.58
2019-05-16T09:50:47.607Z,9.55
2019-05-16T09:53:17.299Z,6.83
2019-05-16T09:55:47.173Z,12.55
2019-05-16T09:58:18.234Z,7.47
2019-05-16T10:00:47.677Z,9.73
2019-05-16T10:03:20.436Z,9.45
2019-05-16T10:05:47.529Z,3.58
2019-05-16T10:08:17.409Z,4.05
2019-05-16T10:10:46.396Z,3.52
2019-05-16T10:13:18.001Z,4.25
2019-05-16T10:15:47.332Z,6.40
2019-05-16T10:18:16.876Z,6.30
2019-05-16T10:20:45.967Z,10.38
2019-05-16T10:23:17.858Z,6.58
2019-05-16T10:25:47.992Z,7.60
2019-05-16T10:28:17.309Z,4.47
2019-05-16T10:30:49.694Z,8.20
2019-05-16T10:33:18.780Z,6.87
2019-05-16T10:35:47.912Z,10.13
2019-05-16T10:38:17.012Z,11.95
2019-05-16T10:41:07.170Z,6.33
2019-05-16T10:43:37.067Z,4.70
2019-05-16T10:46:06.483Z,15.93
2019-05-16T10:48:37.581Z,9.93
2019-05-16T10:51:07.773Z,5.90
2019-05-16T10:54:00.571Z,8.50
2019-05-16T10:56:07.803Z,8.15
2019-05-16T10:58:51.686Z,12.33
2019-05-16T11:01:22.510Z,9.28
2019-05-16T11:03:37.668Z,9.33
2019-05-16T11:06:10.276Z,6.67
2019-05-16T11:08:39.447Z,7.78
2019-05-16T11:11:07.205Z,8.13
2019-05-16T11:13:42.080Z,6.90
2019-05-16T11:16:10.916Z,10.32
2019-05-16T11:18:39.660Z,14.98
2019-05-16T11:21:08.384Z,11.25
2019-05-16T11:23:37.099Z,8.03
2019-05-16T11:26:06.094Z,8.18
2019-05-16T11:28:36.819Z,8.70
2019-05-16T11:31:07.701Z,10.23
2019-05-16T11:33:37.763Z,18.57
2019-05-16T11:36:08.201Z,9.48
2019-05-16T11:38:37.848Z,7.17
2019-05-16T11:41:07.370Z,7.12
2019-05-16T11:43:36.767Z,4.42
2019-05-16T11:46:05.645Z,3.60
2019-05-16T11:48:37.398Z,8.13
2019-05-16T11:51:07.001Z,6.97
2019-05-16T11:53:37.903Z,6.30
2019-05-16T11:56:08.321Z,11.68
2019-05-16T11:58:37.094Z,7.85
2019-05-16T12:01:07.485Z,6.28
2019-05-16T12:03:37.335Z,15.53
2019-05-16T12:06:10.434Z,5.03
2019-05-16T12:08:38.313Z,6.65
2019-05-16T12:11:07.139Z,9.60
2019-05-16T12:13:36.901Z,8.90
2019-05-16T12:16:07.530Z,9.03
2019-05-16T12:18:37.595Z,14.18
2019-05-16T12:21:07.557Z,6.97
2019-05-16T12:23:37.244Z,11.00
2019-05-16T12:26:07.755Z,4.30
2019-05-16T12:28:36.871Z,5.90
2019-05-16T12:31:07.140Z,8.85
2019-05-16T12:33:37.379Z,7.70
2019-05-16T12:36:09.230Z,10.00
2019-05-16T12:38:40.147Z,11.88
2019-05-16T12:41:09.040Z,8.98
2019-05-16T12:43:48.812Z,8.55
2019-05-16T12:46:08.159Z,7.10
2019-05-16T12:48:37.434Z,10.53
2019-05-16T12:51:08.375Z,3.65
2019-05-16T12:53:36.950Z,7.85
2019-05-16T12:56:05.668Z,5.60
2019-05-16T12:58:41.639Z,12.68
2019-05-16T13:01:07.746Z,12.23
2019-05-16T13:03:37.807Z,8.48
2019-05-16T13:06:08.575Z,12.17
2019-05-16T13:08:37.640Z,7.28
2019-05-16T13:11:07.059Z,13.18
2019-05-16T13:13:37.546Z,8.65
2019-05-16T13:16:07.569Z,5.17
2019-05-16T13:18:38.910Z,7.50
2019-05-16T13:21:07.685Z,15.53
2019-05-16T13:23:37.449Z,6.08
2019-05-16T13:26:07.312Z,4.47
2019-05-16T13:28:37.852Z,10.78
2019-05-16T13:31:07.715Z,10.35
2019-05-16T13:33:36.926Z,8.73
2019-05-16T13:36:08.694Z,6.50
2019-05-16T13:38:37.426Z,8.58
2019-05-16T13:41:07.406Z,8.63
2019-05-16T13:43:37.605Z,13.60
2019-05-16T13:46:07.207Z,15.40
2019-05-16T13:48:37.682Z,9.15
2019-05-16T13:51:14.831Z,9.80
2019-05-16T13:53:37.306Z,12.60
2019-05-16T13:56:11.795Z,9.65
2019-05-16T13:58:37.277Z,10.32
2019-05-16T14:01:07.846Z,10.80
2019-05-16T14:03:37.351Z,15.55
2019-05-16T14:06:07.190Z,9.50
2019-05-16T14:08:37.339Z,10.35
2019-05-16T14:11:10.283Z,5.87
2019-05-16T14:13:37.630Z,9.40
2019-05-16T14:16:07.233Z,7.47
2019-05-16T14:18:37.911Z,15.78
2019-05-16T14:21:07.024Z,10.08
2019-05-16T14:23:38.047Z,6.60
2019-05-16T14:26:07.161Z,13.05
2019-05-16T14:28:37.473Z,4.53
2019-05-16T14:31:07.305Z,4.27
2019-05-16T14:33:36.762Z,6.70
2019-05-16T14:36:07.442Z,12.20
2019-05-16T14:38:37.373Z,13.55
2019-05-16T14:41:08.089Z,9.50
2019-05-16T14:43:37.148Z,8.48
2019-05-16T14:46:08.975Z,5.42
2019-05-16T14:48:36.970Z,8.78
2019-05-16T14:51:06.048Z,6.40
2019-05-16T14:53:37.622Z,11.73
2019-05-16T14:56:07.096Z,9.23
2019-05-16T14:58:37.732Z,7.08
2019-05-16T15:01:07.329Z,7.87
2019-05-16T15:03:36.717Z,16.63
2019-05-16T15:06:08.585Z,9.68
2019-05-16T15:08:36.309Z,9.83
2019-05-16T15:11:07.409Z,11.73
2019-05-16T15:13:35.572Z,9.97
2019-05-16T15:16:04.244Z,11.57
2019-05-16T15:18:32.983Z,12.68
2019-05-16T15:21:01.708Z,10.10
2019-05-16T15:23:30.446Z,9.80
2019-05-16T15:25:59.162Z,5.00
2019-05-16T15:28:30.411Z,6.20
2019-05-16T15:30:58.346Z,13.60
2019-05-16T15:33:28.074Z,7.75
2019-05-16T15:35:59.153Z,12.25
2019-05-16T15:38:27.933Z,11.78
2019-05-16T15:41:00.539Z,8.58
2019-05-16T15:43:29.178Z,9.70
2019-05-16T15:46:01.184Z,7.15
2019-05-16T15:48:28.571Z,11.25
2019-05-16T15:50:59.913Z,3.77
2019-05-16T15:53:29.790Z,8.30
2019-05-16T15:55:59.575Z,12.78
2019-05-16T15:58:29.940Z,6.00
2019-05-16T16:01:00.133Z,15.72
2019-05-16T16:03:28.901Z,7.22
2019-05-16T16:05:57.688Z,3.33
2019-05-16T16:08:28.252Z,13.03
2019-05-16T16:10:58.227Z,6.67
2019-05-16T16:13:27.030Z,3.85
2019-05-16T16:15:57.674Z,12.37
2019-05-16T16:18:27.087Z,5.50
2019-05-16T16:20:57.042Z,8.15
2019-05-16T16:23:27.342Z,7.80
2019-05-16T16:25:59.602Z,10.88
2019-05-16T16:28:28.330Z,4.65
2019-05-16T16:30:57.163Z,8.15
2019-05-16T16:33:29.784Z,3.05
2019-05-16T16:35:57.163Z,10.48
2019-05-16T16:38:26.056Z,4.03
2019-05-16T16:40:57.157Z,13.58
2019-05-16T16:43:25.313Z,9.25
2019-05-16T16:46:06.026Z,15.00
2019-05-16T16:48:26.633Z,9.05
2019-05-16T16:50:57.200Z,7.65
2019-05-16T16:53:26.994Z,12.15
2019-05-16T16:55:56.863Z,10.00
2019-05-16T16:58:26.558Z,5.62
2019-05-16T17:00:55.582Z,5.60
2019-05-16T17:03:24.325Z,6.05
2019-05-16T17:05:53.144Z,6.80
2019-05-16T17:08:23.460Z,10.75
2019-05-16T17:10:52.268Z,12.90
2019-05-16T17:13:21.018Z,5.95
2019-05-16T17:15:49.946Z,12.37
2019-05-16T17:18:18.749Z,10.10
2019-05-16T17:20:47.821Z,8.83
2019-05-16T17:23:17.330Z,9.53
2019-05-16T17:25:47.177Z,8.85
2019-05-16T17:28:17.359Z,6.62
2019-05-16T17:30:47.057Z,3.30
2019-05-16T17:33:18.130Z,6.28
2019-05-16T17:35:48.828Z,10.20
2019-05-16T17:38:17.271Z,6.53
2019-05-16T17:40:46.537Z,10.48
2019-05-16T17:43:16.452Z,10.55
2019-05-16T17:45:47.013Z,11.12
2019-05-16T17:48:17.761Z,17.42
2019-05-16T17:50:47.253Z,11.03
2019-05-16T17:53:17.433Z,8.13
2019-05-16T17:55:47.346Z,7.12
2019-05-16T17:58:16.507Z,10.03
2019-05-16T18:00:47.266Z,9.00
2019-05-16T18:03:17.364Z,10.88
2019-05-16T18:05:47.424Z,9.65
2019-05-16T18:08:16.489Z,12.15
2019-05-16T18:10:47.206Z,12.30
2019-05-16T18:13:15.697Z,19.00
2019-05-16T18:15:44.411Z,12.73
2019-05-16T18:18:13.224Z,7.55
2019-05-16T18:20:54.925Z,8.78
2019-05-16T18:23:12.403Z,14.30
2019-05-16T18:25:41.130Z,13.90
2019-05-16T18:28:09.848Z,13.68
2019-05-16T18:30:38.633Z,11.15
2019-05-16T18:33:07.663Z,13.32
2019-05-16T18:35:36.950Z,10.68
2019-05-16T18:38:07.345Z,13.58
2019-05-16T18:40:36.693Z,10.72
2019-05-16T18:43:08.182Z,14.55
2019-05-16T18:45:36.756Z,12.18
2019-05-16T18:48:07.332Z,11.78
2019-05-16T18:50:37.583Z,11.93
2019-05-16T18:53:07.873Z,11.30
2019-05-16T18:55:37.793Z,34.90
2019-05-16T18:58:08.495Z,13.45
2019-05-16T19:00:37.666Z,23.62
2019-05-16T19:03:07.933Z,23.75
2019-05-16T19:05:37.543Z,21.55
2019-05-16T19:08:07.422Z,14.83
2019-05-16T19:10:36.771Z,8.23
2019-05-16T19:13:08.169Z,7.05
2019-05-16T19:15:37.419Z,14.83
2019-05-16T19:18:06.875Z,12.45
2019-05-16T19:20:37.698Z,28.25
2019-05-16T19:23:07.659Z,17.17
2019-05-16T19:25:36.413Z,13.43
2019-05-16T19:28:06.776Z,12.43
2019-05-16T19:30:37.557Z,10.65
2019-05-16T19:33:07.037Z,7.00
2019-05-16T19:35:36.331Z,6.58
2019-05-16T19:38:06.810Z,14.60
2019-05-16T19:40:37.769Z,8.75
2019-05-16T19:43:07.501Z,12.83
2019-05-16T19:45:37.271Z,12.43
2019-05-16T19:48:07.157Z,9.05
2019-05-16T19:50:37.110Z,10.68
2019-05-16T19:53:07.683Z,9.98
2019-05-16T19:55:37.008Z,6.50
2019-05-16T19:58:06.841Z,9.15
2019-05-16T20:00:37.547Z,7.20
2019-05-16T20:03:08.048Z,7.72
2019-05-16T20:05:37.701Z,13.55
2019-05-16T20:08:06.887Z,8.70
2019-05-16T20:10:36.682Z,8.90
2019-05-16T20:13:07.742Z,14.45
2019-05-16T20:15:36.854Z,10.10
2019-05-16T20:18:07.813Z,14.58
2019-05-16T20:20:37.150Z,33.80
2019-05-16T20:23:06.784Z,40.78
2019-05-16T20:25:36.943Z,55.35
2019-05-16T20:28:08.829Z,54.45
2019-05-16T20:30:37.130Z,38.95
2019-05-16T20:33:08.872Z,21.85
2019-05-16T20:35:37.546Z,34.95
2019-05-16T20:38:07.902Z,26.90
2019-05-16T20:40:37.548Z,27.85
2019-05-16T20:43:07.711Z,25.30
2019-05-16T20:45:39.752Z,44.95
2019-05-16T20:48:12.192Z,11.97
2019-05-16T20:50:37.776Z,11.22
2019-05-16T20:53:07.210Z,17.20
2019-05-16T20:55:37.754Z,13.85
2019-05-16T20:58:07.913Z,9.38
2019-05-16T21:00:38.817Z,7.15
2019-05-16T21:03:07.564Z,9.30
2019-05-16T21:05:38.273Z,8.40
2019-05-16T21:08:06.746Z,12.70
2019-05-16T21:10:35.640Z,7.25
2019-05-16T21:13:06.693Z,3.77
2019-05-16T21:15:37.087Z,6.97
2019-05-16T21:18:07.363Z,10.78
2019-05-16T21:20:35.625Z,10.85
2019-05-16T21:23:04.370Z,9.23
2019-05-16T21:25:33.089Z,6.22
2019-05-16T21:28:01.809Z,9.85
2019-05-16T21:30:30.525Z,9.75
2019-05-16T21:32:59.254Z,6.83
2019-05-16T21:35:27.974Z,13.03
2019-05-16T21:37:56.790Z,14.70
2019-05-16T21:40:26.561Z,13.62
2019-05-16T21:42:58.570Z,8.93
2019-05-16T21:45:28.162Z,10.48
2019-05-16T21:47:56.953Z,8.55
2019-05-16T21:50:27.576Z,10.15
2019-05-16T21:52:56.918Z,12.30
2019-05-16T21:55:29.717Z,7.33
2019-05-16T21:57:57.482Z,7.85
2019-05-16T22:00:47.249Z,14.98
2019-05-16T22:03:15.237Z,7.72
2019-05-16T22:05:46.314Z,10.43
2019-05-16T22:08:16.927Z,13.93
2019-05-16T22:10:51.273Z,14.95
2019-05-16T22:13:19.997Z,5.25
2019-05-16T22:15:48.817Z,8.65
2019-05-16T22:18:17.532Z,11.05
2019-05-16T22:20:49.061Z,6.12
2019-05-16T22:23:17.375Z,6.47
2019-05-16T22:25:48.915Z,5.85
2019-05-16T22:28:17.240Z,6.20
2019-05-16T22:30:46.182Z,5.08
2019-05-16T22:33:17.692Z,7.65
2019-05-16T22:35:46.395Z,7.10
2019-05-16T22:38:16.823Z,9.75
2019-05-16T22:40:45.650Z,8.38
2019-05-16T22:43:14.433Z,7.90
2019-05-16T22:45:43.228Z,5.97
2019-05-16T22:48:11.941Z,3.70
2019-05-16T22:50:40.672Z,5.58
2019-05-16T22:53:09.390Z,7.10
2019-05-16T22:55:38.122Z,6.85
2019-05-16T22:58:07.510Z,7.53
2019-05-16T23:00:39.398Z,3.02
2019-05-16T23:03:07.064Z,5.28
2019-05-16T23:05:36.857Z,6.70
2019-05-16T23:08:09.639Z,5.33
2019-05-16T23:10:36.775Z,7.20
2019-05-16T23:13:06.762Z,6.42
2019-05-16T23:15:35.780Z,3.25
2019-05-16T23:18:06.749Z,4.12
2019-05-16T23:20:36.968Z,7.55
2019-05-16T23:23:07.229Z,5.58
2019-05-16T23:25:37.062Z,8.73
2019-05-16T23:28:07.789Z,7.50
2019-05-16T23:30:36.935Z,5.15
2019-05-16T23:33:07.232Z,3.83
2019-05-16T23:35:37.649Z,4.65
2019-05-16T23:38:18.990Z,5.33
2019-05-16T23:40:37.626Z,7.10
2019-05-16T23:43:07.568Z,6.35
2019-05-16T23:45:37.484Z,8.73
2019-05-16T23:48:10.695Z,10.55
2019-05-16T23:50:36.921Z,4.40
2019-05-16T23:53:07.445Z,5.85
2019-05-16T23:55:37.243Z,6.12
2019-05-16T23:58:06.982Z,3.33
